sensor_id;sensor_type;location;lat;lon;timestamp;P1;durP1;ratioP1;P2;durP2;ratioP2
20104;SDS011;10212;42.714;23.310;2023-02-11T03:38:04;45.55;;;19.42;;
20104;SDS011;10212;42.714;23.310;2023-02-11T03:48:17;36.75;;;16.08;;
20104;SDS011;10212;42.714;23.310;2023-02-11T03:58:21;36.30;;;15.35;;
20104;SDS011;10212;42.714;23.310;2023-02-11T04:08:22;30.67;;;14.07;;
20104;SDS011;10212;42.714;23.310;2023-02-11T04:18:24;31.48;;;14.20;;
20104;SDS011;10212;42.714;23.310;2023-02-11T04:28:28;32.78;;;15.60;;
20104;SDS011;10212;42.714;23.310;2023-02-11T04:38:30;33.22;;;15.25;;
20104;SDS011;10212;42.714;23.310;2023-02-11T04:48:30;40.83;;;18.38;;
20104;SDS011;10212;42.714;23.310;2023-02-11T04:58:31;39.67;;;17.10;;
20104;SDS011;10212;42.714;23.310;2023-02-11T05:08:32;34.28;;;15.68;;
20104;SDS011;10212;42.714;23.310;2023-02-11T05:18:33;39.72;;;18.92;;
20104;SDS011;10212;42.714;23.310;2023-02-11T05:28:36;35.80;;;16.35;;
20104;SDS011;10212;42.714;23.310;2023-02-11T05:38:37;28.52;;;12.57;;
20104;SDS011;10212;42.714;23.310;2023-02-11T05:48:38;28.08;;;11.52;;
20104;SDS011;10212;42.714;23.310;2023-02-11T05:58:38;31.48;;;13.60;;
20104;SDS011;10212;42.714;23.310;2023-02-11T06:08:39;30.73;;;13.68;;
20104;SDS011;10212;42.714;23.310;2023-02-11T06:18:39;33.00;;;13.65;;
20104;SDS011;10212;42.714;23.310;2023-02-11T06:28:40;33.67;;;14.80;;
20104;SDS011;10212;42.714;23.310;2023-02-11T06:38:40;31.80;;;14.93;;
20104;SDS011;10212;42.714;23.310;2023-02-11T06:48:41;44.35;;;17.38;;
20104;SDS011;10212;42.714;23.310;2023-02-11T06:58:42;38.90;;;17.92;;
20104;SDS011;10212;42.714;23.310;2023-02-11T07:08:42;46.38;;;19.52;;
20104;SDS011;10212;42.714;23.310;2023-02-11T07:18:45;49.45;;;21.63;;
20104;SDS011;10212;42.714;23.310;2023-02-11T07:28:46;45.67;;;21.58;;
20104;SDS011;10212;42.714;23.310;2023-02-11T07:38:47;50.67;;;22.95;;
20104;SDS011;10212;42.714;23.310;2023-02-11T07:48:48;48.53;;;20.35;;
20104;SDS011;10212;42.714;23.310;2023-02-11T07:58:49;47.83;;;21.60;;
20104;SDS011;10212;42.714;23.310;2023-02-11T08:08:50;43.90;;;21.90;;
20104;SDS011;10212;42.714;23.310;2023-02-11T08:18:50;39.85;;;19.83;;
20104;SDS011;10212;42.714;23.310;2023-02-11T08:28:52;40.70;;;19.65;;
20104;SDS011;10212;42.714;23.310;2023-02-11T08:38:55;45.28;;;22.17;;
20104;SDS011;10212;42.714;23.310;2023-02-11T08:48:56;41.22;;;19.20;;
20104;SDS011;10212;42.714;23.310;2023-02-11T08:58:56;42.42;;;19.33;;
20104;SDS011;10212;42.714;23.310;2023-02-11T09:08:57;40.30;;;18.58;;
20104;SDS011;10212;42.714;23.310;2023-02-11T09:18:58;36.95;;;17.45;;
20104;SDS011;10212;42.714;23.310;2023-02-11T09:29:00;33.50;;;15.55;;
20104;SDS011;10212;42.714;23.310;2023-02-11T09:39:02;34.05;;;16.15;;
20104;SDS011;10212;42.714;23.310;2023-02-11T09:49:03;32.65;;;15.40;;
20104;SDS011;10212;42.714;23.310;2023-02-11T09:59:06;27.85;;;13.90;;
20104;SDS011;10212;42.714;23.310;2023-02-11T10:30:03;23.13;;;12.10;;
20104;SDS011;10212;42.714;23.310;2023-02-11T10:40:20;25.08;;;11.60;;
20104;SDS011;10212;42.714;23.310;2023-02-11T10:50:30;27.90;;;12.23;;
20104;SDS011;10212;42.714;23.310;2023-02-11T11:00:37;23.95;;;10.70;;
20104;SDS011;10212;42.714;23.310;2023-02-11T11:10:41;21.23;;;10.38;;
20104;SDS011;10212;42.714;23.310;2023-02-11T11:20:53;19.10;;;9.23;;
20104;SDS011;10212;42.714;23.310;2023-02-11T11:31:13;19.00;;;9.60;;
20104;SDS011;10212;42.714;23.310;2023-02-11T11:51:27;18.88;;;9.15;;
20104;SDS011;10212;42.714;23.310;2023-02-11T12:22:21;13.73;;;7.82;;
20104;SDS011;10212;42.714;23.310;2023-02-11T12:42:50;14.45;;;7.97;;
20104;SDS011;10212;42.714;23.310;2023-02-11T13:04:07;24.55;;;8.20;;
20104;SDS011;10212;42.714;23.310;2023-02-11T13:14:21;15.77;;;8.10;;
20104;SDS011;10212;42.714;23.310;2023-02-11T13:44:50;14.85;;;7.40;;
20104;SDS011;10212;42.714;23.310;2023-02-11T13:54:51;17.10;;;8.25;;
20104;SDS011;10212;42.714;23.310;2023-02-11T14:15:24;13.68;;;7.93;;
20104;SDS011;10212;42.714;23.310;2023-02-11T14:25:25;17.98;;;8.60;;
20104;SDS011;10212;42.714;23.310;2023-02-11T14:55:32;15.63;;;8.10;;
20104;SDS011;10212;42.714;23.310;2023-02-11T15:05:36;17.27;;;9.27;;
20104;SDS011;10212;42.714;23.310;2023-02-11T15:25:43;17.00;;;9.65;;
20104;SDS011;10212;42.714;23.310;2023-02-11T15:35:50;21.52;;;10.63;;
20104;SDS011;10212;42.714;23.310;2023-02-11T16:05:53;27.95;;;13.20;;
20104;SDS011;10212;42.714;23.310;2023-02-11T16:15:56;21.27;;;11.48;;
20104;SDS011;10212;42.714;23.310;2023-02-11T16:26:05;29.48;;;13.93;;
20104;SDS011;10212;42.714;23.310;2023-02-11T16:36:11;24.63;;;12.07;;
20104;SDS011;10212;42.714;23.310;2023-02-11T16:46:13;20.88;;;10.63;;
20104;SDS011;10212;42.714;23.310;2023-02-11T16:56:15;25.23;;;11.85;;
20104;SDS011;10212;42.714;23.310;2023-02-11T17:06:17;20.98;;;11.23;;
20104;SDS011;10212;42.714;23.310;2023-02-11T17:26:19;21.08;;;11.88;;
20104;SDS011;10212;42.714;23.310;2023-02-11T17:46:20;22.98;;;11.77;;
20104;SDS011;10212;42.714;23.310;2023-02-11T18:06:21;22.83;;;12.30;;
20104;SDS011;10212;42.714;23.310;2023-02-11T18:16:22;24.23;;;12.57;;
20104;SDS011;10212;42.714;23.310;2023-02-11T18:26:26;23.85;;;12.70;;
20104;SDS011;10212;42.714;23.310;2023-02-11T18:36:30;22.15;;;12.10;;
20104;SDS011;10212;42.714;23.310;2023-02-11T18:56:31;21.73;;;11.57;;
20104;SDS011;10212;42.714;23.310;2023-02-11T19:06:33;19.70;;;11.10;;
20104;SDS011;10212;42.714;23.310;2023-02-11T19:16:44;27.48;;;13.80;;
20104;SDS011;10212;42.714;23.310;2023-02-11T19:26:49;20.98;;;12.18;;
20104;SDS011;10212;42.714;23.310;2023-02-11T19:36:51;19.02;;;10.20;;
20104;SDS011;10212;42.714;23.310;2023-02-11T19:46:53;12.43;;;7.13;;
20104;SDS011;10212;42.714;23.310;2023-02-11T20:06:54;12.98;;;6.18;;
20104;SDS011;10212;42.714;23.310;2023-02-11T20:16:57;17.45;;;8.25;;
20104;SDS011;10212;42.714;23.310;2023-02-11T20:36:58;17.15;;;8.15;;
20104;SDS011;10212;42.714;23.310;2023-02-11T20:46:59;14.45;;;7.43;;
20104;SDS011;10212;42.714;23.310;2023-02-11T21:07:00;14.80;;;7.75;;
20104;SDS011;10212;42.714;23.310;2023-02-11T21:17:01;17.80;;;8.18;;
20104;SDS011;10212;42.714;23.310;2023-02-11T21:37:02;25.02;;;11.00;;
20104;SDS011;10212;42.714;23.310;2023-02-11T21:47:02;25.73;;;12.33;;
20104;SDS011;10212;42.714;23.310;2023-02-11T22:07:03;16.77;;;9.35;;
20104;SDS011;10212;42.714;23.310;2023-02-11T22:27:04;20.20;;;8.63;;
20104;SDS011;10212;42.714;23.310;2023-02-11T22:47:06;15.30;;;8.60;;
20104;SDS011;10212;42.714;23.310;2023-02-11T23:07:07;14.07;;;8.00;;
20104;SDS011;10212;42.714;23.310;2023-02-11T23:27:08;18.73;;;10.15;;
20104;SDS011;10212;42.714;23.310;2023-02-11T23:47:08;19.33;;;10.07;;
